Pollard, Alabama
Current Conditions -  °F | °C
As of 2:53 PM on Wednesday 17 Dec 2014 (Local Time) from KGZH Reporting Station
Clear Clear  
Wind Chill: 14°   Ceiling: Unl
Heat Index: 14°   Visibility: 10mi
Dew Point:   Wind: 3mph
Humidity: 53%   Direction: NA
Pressure: 30.17"   Gusts: NA
Location:  31.1088°N, 87.2802°W
Report Text: KGZH 172053Z AUTO VRB03KT 10SM CLR 14/05 A3017 RMK AO2 SLP216 T01440050 56021
Loading
Personal Weather Stations






























Interactive Weather Map New forecast layout! Learn more

10-Day Weather Forecast

Advertisements
Track Severe Weather on mobile